createdAt,value
2022-09-12T00:00:44.179Z,2.80
2022-09-12T00:03:10.576Z,3.28
2022-09-12T00:05:47.328Z,2.83
2022-09-12T00:08:14.892Z,2.15
2022-09-12T00:10:44.103Z,2.25
2022-09-12T00:13:11.097Z,2.00
2022-09-12T00:15:42.508Z,2.25
2022-09-12T00:18:12.394Z,1.98
2022-09-12T00:20:47.115Z,2.10
2022-09-12T00:23:14.638Z,1.50
2022-09-12T00:25:45.854Z,1.77
2022-09-12T00:28:13.697Z,1.60
2022-09-12T00:30:44.356Z,1.00
2022-09-12T00:33:11.636Z,1.20
2022-09-12T00:35:42.636Z,1.33
2022-09-12T00:40:35.473Z,1.85
2022-09-12T00:43:01.854Z,1.75
2022-09-12T00:45:29.980Z,1.35
2022-09-12T00:48:00.896Z,1.88
2022-09-12T00:50:28.498Z,2.00
2022-09-12T00:53:00.086Z,1.42
2022-09-12T00:55:31.805Z,1.90
2022-09-12T00:58:13.182Z,2.05
2022-09-12T01:00:39.570Z,1.58
2022-09-12T01:03:14.709Z,1.55
2022-09-12T01:05:44.863Z,2.05
2022-09-12T01:08:12.066Z,1.67
2022-09-12T01:10:41.193Z,1.63
2022-09-12T01:13:09.720Z,1.77
2022-09-12T01:15:39.986Z,1.88
2022-09-12T01:18:20.064Z,2.53
2022-09-12T01:21:08.969Z,2.10
2022-09-12T01:24:05.524Z,1.92
2022-09-12T01:27:05.413Z,2.22
2022-09-12T01:29:50.957Z,1.60
2022-09-12T01:32:29.421Z,1.90
2022-09-12T01:35:21.047Z,1.60
2022-09-12T01:38:09.394Z,1.60
2022-09-12T01:40:52.199Z,1.98
2022-09-12T01:43:36.634Z,1.35
2022-09-12T01:46:17.773Z,1.67
2022-09-12T01:51:44.715Z,1.45
2022-09-12T01:54:20.252Z,1.75
2022-09-12T01:56:51.506Z,1.30
2022-09-12T01:59:35.067Z,1.13
2022-09-12T02:02:12.072Z,1.25
2022-09-12T02:04:48.686Z,1.10
2022-09-12T02:07:20.249Z,1.40
2022-09-12T02:10:07.657Z,1.30
2022-09-12T02:12:48.731Z,1.40
2022-09-12T02:17:47.262Z,1.52
2022-09-12T02:20:46.922Z,1.47
2022-09-12T02:23:20.450Z,1.23
2022-09-12T02:25:50.910Z,1.67
2022-09-12T02:28:25.239Z,1.45
2022-09-12T02:31:17.006Z,1.35
2022-09-12T02:34:13.697Z,1.40
2022-09-12T02:36:54.615Z,1.70
2022-09-12T02:39:21.200Z,1.55
2022-09-12T02:41:51.628Z,1.83
2022-09-12T02:44:18.266Z,1.50
2022-09-12T02:46:48.469Z,1.58
2022-09-12T02:49:15.895Z,1.60
2022-09-12T02:51:42.590Z,1.85
2022-09-12T02:54:10.030Z,1.58
2022-09-12T02:56:40.572Z,1.50
2022-09-12T02:59:09.767Z,1.60
2022-09-12T03:01:55.814Z,1.52
2022-09-12T03:04:40.176Z,2.03
2022-09-12T03:07:21.643Z,1.02
2022-09-12T03:10:11.263Z,1.80
2022-09-12T03:12:49.758Z,1.75
2022-09-12T03:15:28.393Z,1.73
2022-09-12T03:18:19.966Z,1.95
2022-09-12T03:20:57.546Z,1.20
2022-09-12T03:23:33.778Z,1.10
2022-09-12T03:26:09.270Z,1.00
2022-09-12T03:28:38.796Z,1.20
2022-09-12T03:31:19.205Z,1.20
2022-09-12T03:33:46.261Z,1.20
2022-09-12T03:36:23.656Z,1.30
2022-09-12T03:38:50.150Z,1.35
2022-09-12T03:41:16.586Z,1.45
2022-09-12T03:43:42.986Z,1.40
2022-09-12T03:46:09.438Z,1.10
2022-09-12T03:48:36.023Z,0.98
2022-09-12T03:51:05.550Z,0.82
2022-09-12T03:53:32.273Z,1.30
2022-09-12T03:55:59.157Z,1.45
2022-09-12T03:58:30.226Z,1.80
2022-09-12T04:03:23.196Z,1.70
2022-09-12T04:05:49.579Z,1.55
2022-09-12T04:08:15.964Z,1.27
2022-09-12T04:10:42.435Z,1.40
2022-09-12T04:13:08.883Z,1.60
2022-09-12T04:15:35.287Z,1.58
2022-09-12T04:18:05.801Z,1.85
2022-09-12T04:20:32.580Z,1.98
2022-09-12T04:22:58.968Z,1.60
2022-09-12T04:25:25.580Z,1.92
2022-09-12T04:27:51.974Z,1.80
2022-09-12T04:30:18.426Z,1.73
2022-09-12T04:32:44.836Z,1.70
2022-09-12T04:35:12.804Z,1.73
2022-09-12T04:37:39.201Z,1.58
2022-09-12T04:40:06.090Z,1.95
2022-09-12T04:42:32.528Z,1.98
2022-09-12T04:44:58.930Z,1.88
2022-09-12T04:47:25.302Z,1.75
2022-09-12T04:49:51.687Z,2.15
2022-09-12T04:52:18.116Z,1.90
2022-09-12T04:54:44.500Z,2.00
2022-09-12T04:57:10.878Z,2.20
2022-09-12T04:59:38.384Z,2.60
2022-09-12T05:02:04.810Z,2.47
2022-09-12T05:04:31.670Z,2.70
2022-09-12T05:06:58.645Z,4.40
2022-09-12T05:09:25.082Z,3.35
2022-09-12T05:12:06.886Z,3.50
2022-09-12T05:14:42.522Z,3.03
2022-09-12T05:17:09.052Z,3.28
2022-09-12T05:19:35.449Z,3.30
2022-09-12T05:22:01.855Z,3.70
2022-09-12T05:24:28.746Z,3.33
2022-09-12T05:26:55.355Z,3.05
2022-09-12T05:29:21.970Z,3.03
2022-09-12T05:31:52.020Z,3.20
2022-09-12T05:34:19.786Z,2.83
2022-09-12T05:36:46.435Z,2.55
2022-09-12T05:39:12.844Z,2.40
2022-09-12T05:41:39.240Z,2.60
2022-09-12T05:44:07.537Z,3.15
2022-09-12T05:46:39.758Z,2.50
2022-09-12T05:49:08.550Z,2.53
2022-09-12T05:51:41.393Z,2.50
2022-09-12T05:54:10.174Z,3.17
2022-09-12T05:56:42.104Z,3.22
2022-09-12T05:59:13.372Z,3.20
2022-09-12T06:01:40.384Z,3.28
2022-09-12T06:04:07.960Z,4.18
2022-09-12T06:06:41.595Z,4.43
2022-09-12T06:09:09.065Z,5.78
2022-09-12T06:11:37.950Z,6.22
2022-09-12T06:14:04.732Z,7.13
2022-09-12T06:16:33.379Z,7.53
2022-09-12T06:19:06.666Z,6.20
2022-09-12T06:21:35.280Z,5.55
2022-09-12T06:24:02.236Z,5.97
2022-09-12T06:26:29.497Z,5.45
2022-09-12T06:28:57.341Z,5.43
2022-09-12T06:31:27.221Z,5.68
2022-09-12T06:33:55.266Z,5.85
2022-09-12T06:36:30.574Z,5.65
2022-09-12T06:38:59.358Z,5.50
2022-09-12T06:41:26.852Z,5.20
2022-09-12T06:43:53.767Z,5.28
2022-09-12T06:46:20.693Z,5.55
2022-09-12T06:48:47.956Z,4.97
2022-09-12T06:51:16.146Z,4.57
2022-09-12T06:53:43.692Z,4.50
2022-09-12T06:56:15.800Z,4.75
2022-09-12T06:58:43.817Z,4.93
2022-09-12T07:01:15.658Z,4.47
2022-09-12T07:03:43.513Z,4.55
2022-09-12T07:06:12.914Z,4.43
2022-09-12T07:08:40.830Z,5.47
2022-09-12T07:11:14.912Z,4.65
2022-09-12T07:13:43.490Z,4.60
2022-09-12T07:16:12.285Z,4.47
2022-09-12T07:18:40.461Z,4.03
2022-09-12T07:21:11.453Z,4.25
2022-09-12T07:23:38.395Z,4.47
2022-09-12T07:26:04.969Z,4.18
2022-09-12T07:28:33.207Z,4.40
2022-09-12T07:31:09.147Z,3.95
2022-09-12T07:33:36.188Z,4.13
2022-09-12T07:36:08.691Z,3.70
2022-09-12T07:38:35.174Z,3.22
2022-09-12T07:41:04.727Z,3.15
2022-09-12T07:43:31.120Z,3.90
2022-09-12T07:45:57.760Z,2.95
2022-09-12T07:48:24.728Z,3.25
2022-09-12T07:51:01.306Z,3.38
2022-09-12T07:53:32.872Z,2.85
2022-09-12T07:55:59.494Z,2.83
2022-09-12T07:58:26.051Z,2.80
2022-09-12T08:00:52.651Z,2.75
2022-09-12T08:03:19.239Z,2.47
2022-09-12T08:05:45.644Z,2.92
2022-09-12T08:08:12.061Z,2.72
2022-09-12T08:10:38.443Z,2.85
2022-09-12T08:13:04.871Z,2.63
2022-09-12T08:15:31.501Z,2.08
2022-09-12T08:17:57.932Z,2.08
2022-09-12T08:20:28.149Z,2.08
2022-09-12T08:22:54.811Z,1.73
2022-09-12T08:25:21.198Z,2.00
2022-09-12T08:27:48.273Z,1.63
2022-09-12T08:30:14.729Z,1.80
2022-09-12T08:32:41.107Z,1.70
2022-09-12T08:35:08.047Z,1.67
2022-09-12T08:37:34.447Z,1.83
2022-09-12T08:40:00.930Z,2.13
2022-09-12T08:43:06.246Z,2.15
2022-09-12T08:45:48.595Z,1.90
2022-09-12T08:48:15.144Z,1.98
2022-09-12T08:50:49.264Z,2.00
2022-09-12T08:53:21.076Z,2.47
2022-09-12T08:55:59.603Z,1.80
2022-09-12T08:58:28.959Z,1.52
2022-09-12T09:01:07.355Z,1.90
2022-09-12T09:03:47.784Z,2.33
2022-09-12T09:06:48.376Z,2.25
2022-09-12T09:09:46.316Z,2.00
2022-09-12T09:12:25.960Z,2.00
2022-09-12T09:15:10.237Z,1.92
2022-09-12T09:17:46.389Z,2.22
2022-09-12T09:20:37.069Z,2.30
2022-09-12T09:23:16.434Z,1.92
2022-09-12T09:25:52.570Z,1.90
2022-09-12T09:28:30.842Z,1.40
2022-09-12T09:30:58.292Z,1.55
2022-09-12T09:33:30.884Z,1.70
2022-09-12T09:36:09.015Z,1.42
2022-09-12T09:38:49.247Z,1.48
2022-09-12T09:41:37.539Z,1.50
2022-09-12T09:44:04.455Z,1.60
2022-09-12T09:46:32.380Z,1.70
2022-09-12T09:49:04.528Z,1.45
2022-09-12T09:51:36.875Z,1.48
2022-09-12T09:54:13.068Z,1.23
2022-09-12T09:56:42.512Z,1.38
2022-09-12T09:59:29.722Z,1.30
2022-09-12T10:02:01.451Z,1.42
2022-09-12T10:04:31.445Z,1.38
2022-09-12T10:07:01.115Z,1.10
2022-09-12T10:09:35.992Z,1.40
2022-09-12T10:12:29.123Z,1.30
2022-09-12T10:15:04.312Z,1.02
2022-09-12T10:17:40.177Z,1.20
2022-09-12T10:20:32.325Z,1.13
2022-09-12T10:23:16.687Z,1.48
2022-09-12T10:25:47.756Z,1.30
2022-09-12T10:28:27.028Z,1.15
2022-09-12T10:30:55.122Z,1.42
2022-09-12T10:33:24.752Z,1.10
2022-09-12T10:35:54.035Z,1.25
2022-09-12T10:38:32.506Z,1.60
2022-09-12T10:41:03.505Z,1.48
2022-09-12T10:43:33.056Z,1.15
2022-09-12T10:46:20.497Z,1.40
2022-09-12T10:48:52.074Z,1.40
2022-09-12T10:51:24.127Z,1.55
2022-09-12T10:54:02.606Z,1.25
2022-09-12T10:56:32.640Z,1.20
2022-09-12T10:59:36.587Z,1.00
2022-09-12T11:02:09.097Z,1.25
2022-09-12T11:05:12.955Z,1.58
2022-09-12T11:07:45.955Z,1.27
2022-09-12T11:10:49.026Z,1.30
2022-09-12T11:13:29.005Z,1.08
2022-09-12T11:16:22.967Z,1.57
2022-09-12T11:19:09.372Z,1.55
2022-09-12T11:21:57.038Z,1.77
2022-09-12T11:24:32.697Z,1.20
2022-09-12T11:27:22.377Z,1.08
2022-09-12T11:29:57.312Z,1.35
2022-09-12T11:32:45.365Z,1.30
2022-09-12T11:35:31.547Z,1.30
2022-09-12T11:38:19.516Z,1.30
2022-09-12T11:40:55.779Z,1.60
2022-09-12T11:43:31.198Z,1.48
2022-09-12T11:46:05.379Z,1.20
2022-09-12T11:48:55.520Z,1.17
2022-09-12T11:51:29.271Z,1.27
2022-09-12T11:54:22.777Z,1.08
2022-09-12T11:56:57.299Z,1.40
2022-09-12T11:59:30.984Z,1.63
2022-09-12T12:02:02.533Z,1.20
2022-09-12T12:04:39.840Z,2.70
2022-09-12T12:07:11.574Z,1.05
2022-09-12T12:09:50.223Z,1.17
2022-09-12T12:12:22.354Z,1.27
2022-09-12T12:14:51.703Z,1.30
2022-09-12T12:17:24.026Z,1.45
2022-09-12T12:20:04.751Z,1.45
2022-09-12T12:22:33.692Z,2.08
2022-09-12T12:25:06.098Z,1.30
2022-09-12T12:27:44.822Z,1.35
2022-09-12T12:30:29.540Z,1.60
2022-09-12T12:33:22.634Z,1.88
2022-09-12T12:36:00.966Z,1.25
2022-09-12T12:38:32.543Z,1.50
2022-09-12T12:41:17.150Z,1.33
2022-09-12T12:43:56.239Z,1.40
2022-09-12T12:46:27.356Z,1.35
2022-09-12T12:48:53.740Z,1.10
2022-09-12T12:51:48.392Z,1.15
2022-09-12T12:54:42.119Z,1.00
2022-09-12T12:57:26.059Z,1.63
2022-09-12T13:00:01.298Z,1.10
2022-09-12T13:02:41.310Z,1.40
2022-09-12T13:05:19.809Z,1.20
2022-09-12T13:07:48.078Z,1.40
2022-09-12T13:10:24.515Z,1.23
2022-09-12T13:12:52.134Z,1.40
2022-09-12T13:15:36.715Z,1.20
2022-09-12T13:18:07.128Z,1.20
2022-09-12T13:20:43.362Z,1.15
2022-09-12T13:23:25.742Z,1.30
2022-09-12T13:25:54.279Z,1.15
2022-09-12T13:28:20.779Z,1.40
2022-09-12T13:31:24.598Z,1.10
2022-09-12T13:33:54.451Z,1.27
2022-09-12T13:36:45.916Z,1.30
2022-09-12T13:39:47.707Z,1.42
2022-09-12T13:42:32.638Z,1.45
2022-09-12T13:45:21.303Z,1.30
2022-09-12T13:47:56.609Z,1.10
2022-09-12T13:50:46.427Z,1.42
2022-09-12T13:53:19.938Z,1.17
2022-09-12T13:55:49.734Z,1.48
2022-09-12T13:58:23.297Z,1.20
2022-09-12T14:01:14.320Z,1.40
2022-09-12T14:04:13.940Z,1.70
2022-09-12T14:06:46.587Z,1.20
2022-09-12T14:09:26.205Z,1.30
2022-09-12T14:11:53.006Z,1.33
2022-09-12T14:14:31.381Z,1.50
2022-09-12T14:16:59.020Z,1.10
2022-09-12T14:19:26.580Z,1.13
2022-09-12T14:21:54.343Z,1.33
2022-09-12T14:24:23.337Z,1.13
2022-09-12T14:26:54.126Z,1.55
2022-09-12T14:32:01.384Z,1.40
2022-09-12T14:34:28.066Z,1.38
2022-09-12T14:36:56.214Z,1.17
2022-09-12T14:39:33.451Z,1.30
2022-09-12T14:42:07.350Z,1.65
2022-09-12T14:44:35.745Z,1.42
2022-09-12T14:47:20.132Z,1.33
2022-09-12T14:49:48.680Z,1.77
2022-09-12T14:52:28.637Z,1.42
2022-09-12T14:55:03.282Z,1.63
2022-09-12T14:57:38.860Z,1.48
2022-09-12T15:00:16.058Z,1.33
2022-09-12T15:02:45.669Z,1.20
2022-09-12T15:05:12.068Z,1.15
2022-09-12T15:07:50.714Z,1.30
2022-09-12T15:10:31.404Z,1.48
2022-09-12T15:15:43.756Z,1.52
2022-09-12T15:18:10.526Z,1.17
2022-09-12T15:20:41.991Z,1.23
2022-09-12T15:23:15.801Z,1.75
2022-09-12T15:25:42.218Z,1.20
2022-09-12T15:28:18.247Z,1.50
2022-09-12T15:30:45.281Z,1.30
2022-09-12T15:33:12.135Z,1.27
2022-09-12T15:35:39.235Z,1.20
2022-09-12T15:38:05.921Z,1.38
2022-09-12T15:40:32.366Z,1.33
2022-09-12T15:42:58.896Z,1.40
2022-09-12T15:45:31.972Z,1.33
2022-09-12T15:47:58.623Z,1.38
2022-09-12T15:50:25.424Z,1.30
2022-09-12T15:52:52.275Z,1.20
2022-09-12T15:55:27.894Z,1.52
2022-09-12T15:57:54.354Z,1.30
2022-09-12T16:00:20.958Z,1.50
2022-09-12T16:02:50.015Z,1.30
2022-09-12T16:05:23.196Z,1.58
2022-09-12T16:07:53.202Z,1.27
2022-09-12T16:10:23.643Z,1.30
2022-09-12T16:12:51.257Z,1.40
2022-09-12T16:15:20.816Z,1.42
2022-09-12T16:17:47.759Z,1.30
2022-09-12T16:20:14.416Z,1.48
2022-09-12T16:22:41.176Z,1.42
2022-09-12T16:25:08.274Z,1.58
2022-09-12T16:27:35.919Z,2.00
2022-09-12T16:30:02.564Z,1.45
2022-09-12T16:32:29.116Z,1.55
2022-09-12T16:34:55.566Z,1.67
2022-09-12T16:37:22.011Z,1.70
2022-09-12T16:39:48.967Z,1.50
2022-09-12T16:42:19.307Z,1.90
2022-09-12T16:44:47.024Z,1.70
2022-09-12T16:47:14.027Z,1.52
2022-09-12T16:49:40.436Z,1.60
2022-09-12T16:52:06.983Z,1.60
2022-09-12T16:54:33.491Z,1.75
2022-09-12T16:57:00.568Z,1.77
2022-09-12T16:59:26.960Z,1.63
2022-09-12T17:01:53.461Z,1.80
2022-09-12T17:04:23.434Z,1.48
2022-09-12T17:06:50.293Z,1.85
2022-09-12T17:09:21.622Z,1.50
2022-09-12T17:11:48.018Z,1.60
2022-09-12T17:14:14.483Z,2.00
2022-09-12T17:16:46.921Z,1.80
2022-09-12T17:19:22.079Z,1.80
2022-09-12T17:21:50.033Z,1.80
2022-09-12T17:24:17.829Z,1.73
2022-09-12T17:26:44.675Z,1.98
2022-09-12T17:29:12.705Z,1.83
2022-09-12T17:31:39.932Z,1.95
2022-09-12T17:34:06.713Z,1.90
2022-09-12T17:36:33.983Z,1.75
2022-09-12T17:39:02.848Z,1.80
2022-09-12T17:41:31.720Z,1.83
2022-09-12T17:44:00.424Z,1.75
2022-09-12T17:46:31.827Z,1.35
2022-09-12T17:48:58.483Z,1.50
2022-09-12T17:51:26.512Z,2.22
2022-09-12T17:54:01.117Z,1.48
2022-09-12T17:56:30.067Z,1.83
2022-09-12T17:58:57.915Z,1.83
2022-09-12T18:01:43.524Z,2.00
2022-09-12T18:04:10.730Z,1.92
2022-09-12T18:06:37.476Z,1.48
2022-09-12T18:09:06.443Z,1.65
2022-09-12T18:11:33.678Z,1.67
2022-09-12T18:14:00.298Z,1.70
2022-09-12T18:16:28.437Z,1.50
2022-09-12T18:18:55.356Z,1.70
2022-09-12T18:21:21.774Z,1.77
2022-09-12T18:23:48.154Z,1.67
2022-09-12T18:26:15.145Z,1.52
2022-09-12T18:28:44.466Z,2.03
2022-09-12T18:31:21.019Z,1.88
2022-09-12T18:33:48.078Z,2.10
2022-09-12T18:36:16.672Z,2.60
2022-09-12T18:38:43.928Z,1.90
2022-09-12T18:41:13.130Z,1.98
2022-09-12T18:43:39.540Z,2.10
2022-09-12T18:46:26.851Z,2.17
2022-09-12T18:48:57.630Z,2.30
2022-09-12T18:51:31.502Z,2.42
2022-09-12T18:54:00.572Z,2.03
2022-09-12T18:56:32.231Z,2.15
2022-09-12T18:58:59.574Z,2.55
2022-09-12T19:01:31.718Z,2.30
2022-09-12T19:03:59.931Z,2.45
2022-09-12T19:06:31.588Z,2.55
2022-09-12T19:09:00.865Z,2.00
2022-09-12T19:11:29.496Z,2.25
2022-09-12T19:13:56.466Z,2.60
2022-09-12T19:16:25.732Z,2.25
2022-09-12T19:18:54.376Z,1.70
2022-09-12T19:21:24.374Z,1.83
2022-09-12T19:23:52.395Z,2.23
2022-09-12T19:26:20.399Z,1.88
2022-09-12T19:28:46.988Z,2.35
2022-09-12T19:31:16.584Z,2.38
2022-09-12T19:33:43.040Z,2.08
2022-09-12T19:36:27.649Z,2.20
2022-09-12T19:38:59.914Z,2.45
2022-09-12T19:41:26.363Z,2.70
2022-09-12T19:43:52.743Z,2.45
2022-09-12T19:46:21.521Z,2.20
2022-09-12T19:48:49.574Z,2.65
2022-09-12T19:51:16.753Z,2.60
2022-09-12T19:53:43.664Z,2.15
2022-09-12T19:56:11.859Z,2.38
2022-09-12T19:58:44.961Z,2.00
2022-09-12T20:01:14.749Z,2.42
2022-09-12T20:03:42.330Z,2.25
2022-09-12T20:06:11.167Z,2.47
2022-09-12T20:08:39.966Z,2.70
2022-09-12T20:11:07.315Z,2.97
2022-09-12T20:13:33.808Z,2.28
2022-09-12T20:16:08.093Z,2.75
2022-09-12T20:18:34.862Z,3.03
2022-09-12T20:21:19.363Z,3.00
2022-09-12T20:23:46.650Z,2.72
2022-09-12T20:26:13.691Z,2.47
2022-09-12T20:28:41.046Z,3.33
2022-09-12T20:31:11.641Z,3.15
2022-09-12T20:33:38.384Z,3.05
2022-09-12T20:36:07.383Z,2.75
2022-09-12T20:38:34.188Z,3.10
2022-09-12T20:41:02.201Z,2.38
2022-09-12T20:43:28.780Z,2.53
2022-09-12T20:45:55.273Z,3.00
2022-09-12T20:48:21.649Z,2.85
2022-09-12T20:50:48.023Z,3.00
2022-09-12T20:53:14.841Z,2.97
2022-09-12T20:55:49.025Z,3.70
2022-09-12T20:58:15.423Z,2.92
2022-09-12T21:00:42.014Z,2.97
2022-09-12T21:03:08.455Z,3.50
2022-09-12T21:05:34.982Z,3.72
2022-09-12T21:08:01.671Z,3.28
2022-09-12T21:10:28.094Z,3.45
2022-09-12T21:12:54.482Z,3.55
2022-09-12T21:15:20.850Z,2.97
2022-09-12T21:17:47.234Z,3.65
2022-09-12T21:20:13.620Z,3.65
2022-09-12T21:22:39.999Z,3.95
2022-09-12T21:25:06.667Z,3.67
2022-09-12T21:27:33.030Z,3.60
2022-09-12T21:29:59.443Z,3.67
2022-09-12T21:32:26.103Z,3.80
2022-09-12T21:34:52.482Z,4.03
2022-09-12T21:37:18.887Z,4.05
2022-09-12T21:39:45.316Z,4.15
2022-09-12T21:42:11.790Z,3.88
2022-09-12T21:44:38.192Z,3.90
2022-09-12T21:47:04.887Z,4.28
2022-09-12T21:49:31.265Z,4.93
2022-09-12T21:51:57.643Z,4.28
2022-09-12T21:54:24.015Z,4.93
2022-09-12T21:56:50.400Z,5.47
2022-09-12T21:59:16.827Z,4.30
2022-09-12T22:01:43.283Z,4.40
2022-09-12T22:04:10.611Z,4.30
2022-09-12T22:06:37.043Z,4.93
2022-09-12T22:09:05.670Z,4.50
2022-09-12T22:11:32.058Z,4.35
2022-09-12T22:13:58.484Z,4.20
2022-09-12T22:16:24.920Z,4.55
2022-09-12T22:18:52.034Z,4.18
2022-09-12T22:21:21.919Z,4.13
2022-09-12T22:24:06.962Z,4.60
2022-09-12T22:26:42.068Z,4.50
2022-09-12T22:29:10.110Z,4.32
2022-09-12T22:31:37.723Z,4.72
2022-09-12T22:34:04.192Z,4.40
2022-09-12T22:36:31.626Z,4.22
2022-09-12T22:38:59.657Z,4.43
2022-09-12T22:41:26.155Z,4.65
2022-09-12T22:43:52.658Z,5.20
2022-09-12T22:46:19.117Z,5.15
2022-09-12T22:48:45.801Z,5.53
2022-09-12T22:51:12.248Z,5.20
2022-09-12T22:53:38.844Z,5.22
2022-09-12T22:56:06.091Z,5.35
2022-09-12T22:58:33.988Z,5.47
2022-09-12T23:01:00.595Z,5.13
2022-09-12T23:03:27.098Z,4.70
2022-09-12T23:05:53.687Z,5.63
2022-09-12T23:08:20.075Z,5.55
2022-09-12T23:10:46.715Z,5.90
2022-09-12T23:13:13.257Z,5.68
2022-09-12T23:15:39.961Z,4.90
2022-09-12T23:18:06.450Z,5.15
2022-09-12T23:20:32.928Z,4.07
2022-09-12T23:22:59.310Z,4.60
2022-09-12T23:25:26.143Z,4.10
2022-09-12T23:27:52.567Z,4.10
2022-09-12T23:30:21.293Z,4.00
2022-09-12T23:32:50.704Z,4.28
2022-09-12T23:35:19.649Z,3.38
2022-09-12T23:37:47.077Z,3.85
2022-09-12T23:40:13.868Z,3.70
2022-09-12T23:42:40.401Z,3.90
2022-09-12T23:45:07.258Z,3.10
2022-09-12T23:47:33.757Z,3.38
2022-09-12T23:50:00.193Z,3.25
2022-09-12T23:52:27.183Z,3.25
2022-09-12T23:54:53.635Z,3.55
2022-09-12T23:57:20.088Z,3.92
2022-09-12T23:59:46.531Z,3.78
